createdAt,value
2024-03-07T00:02:08.363Z,61.06
2024-03-07T00:07:10.988Z,56.18
2024-03-07T00:12:13.608Z,55.19
2024-03-07T00:17:16.194Z,56.46
2024-03-07T00:22:19.550Z,57.49
2024-03-07T00:27:22.132Z,58.23
2024-03-07T00:32:24.709Z,58.82
2024-03-07T00:37:27.212Z,59.40
2024-03-07T00:42:30.164Z,60.10
2024-03-07T00:47:33.355Z,60.74
2024-03-07T00:52:36.012Z,66.47
2024-03-07T00:57:39.235Z,71.45
2024-03-07T01:02:45.395Z,68.56
2024-03-07T01:07:48.355Z,65.39
2024-03-07T01:12:51.171Z,63.17
2024-03-07T01:17:53.873Z,61.53
2024-03-07T01:22:57.856Z,60.18
2024-03-07T01:28:01.817Z,56.88
2024-03-07T01:33:04.816Z,56.70
2024-03-07T01:38:09.524Z,57.66
2024-03-07T01:43:12.360Z,58.79
2024-03-07T01:48:22.579Z,59.30
2024-03-07T01:53:26.878Z,59.70
2024-03-07T01:58:31.298Z,60.54
2024-03-07T02:03:34.121Z,66.45
2024-03-07T02:08:36.788Z,70.80
2024-03-07T02:13:39.312Z,68.21
2024-03-07T02:18:41.812Z,65.84
2024-03-07T02:23:44.830Z,64.04
2024-03-07T02:28:47.338Z,62.42
2024-03-07T02:33:49.849Z,61.05
2024-03-07T02:38:52.402Z,60.29
2024-03-07T02:43:54.930Z,59.69
2024-03-07T02:48:57.356Z,56.86
2024-03-07T02:53:59.956Z,56.94
2024-03-07T02:59:04.910Z,58.19
2024-03-07T03:04:07.672Z,59.02
2024-03-07T03:09:14.179Z,59.73
2024-03-07T03:14:16.678Z,60.47
2024-03-07T03:19:19.260Z,61.02
2024-03-07T03:24:22.133Z,65.90
2024-03-07T03:29:24.635Z,71.24
2024-03-07T03:34:27.774Z,70.20
2024-03-07T03:39:30.239Z,67.66
2024-03-07T03:44:32.727Z,65.07
2024-03-07T03:49:35.200Z,63.10
2024-03-07T03:54:37.647Z,61.84
2024-03-07T03:59:45.739Z,61.03
2024-03-07T04:04:49.074Z,60.48
2024-03-07T04:09:51.633Z,59.96
2024-03-07T04:14:55.935Z,57.28
2024-03-07T04:19:59.534Z,57.17
2024-03-07T04:25:05.783Z,58.44
2024-03-07T04:30:12.115Z,59.14
2024-03-07T04:35:17.139Z,59.66
2024-03-07T04:40:23.029Z,60.16
2024-03-07T04:45:25.609Z,65.15
2024-03-07T04:50:28.178Z,70.74
2024-03-07T04:55:31.354Z,69.10
2024-03-07T05:00:33.791Z,66.85
2024-03-07T05:05:36.340Z,65.37
2024-03-07T05:10:38.901Z,63.78
2024-03-07T05:15:41.417Z,62.65
2024-03-07T05:20:43.869Z,61.91
2024-03-07T05:25:47.234Z,61.40
2024-03-07T05:30:50.435Z,60.99
2024-03-07T05:36:03.873Z,60.61
2024-03-07T05:41:06.446Z,60.28
2024-03-07T05:46:10.969Z,59.80
2024-03-07T05:51:13.669Z,59.55
2024-03-07T05:56:17.419Z,57.18
2024-03-07T06:01:19.868Z,57.27
2024-03-07T06:06:22.732Z,58.58
2024-03-07T06:11:26.402Z,59.24
2024-03-07T06:16:33.707Z,59.97
2024-03-07T06:21:38.154Z,60.81
2024-03-07T06:27:00.613Z,65.02
2024-03-07T06:32:03.458Z,69.63
2024-03-07T06:37:06.524Z,67.81
2024-03-07T06:42:08.996Z,65.75
2024-03-07T06:47:11.742Z,62.90
2024-03-07T06:52:14.286Z,60.61
2024-03-07T06:57:18.391Z,56.37
2024-03-07T07:02:20.924Z,55.36
2024-03-07T07:07:23.465Z,59.11
2024-03-07T07:12:25.976Z,61.44
2024-03-07T07:17:30.069Z,65.67
2024-03-07T07:22:36.018Z,62.22
2024-03-07T07:27:38.671Z,57.43
2024-03-07T07:32:42.471Z,55.56
2024-03-07T07:37:49.142Z,57.83
2024-03-07T07:42:53.266Z,60.07
2024-03-07T07:47:56.400Z,67.48
2024-03-07T07:52:59.990Z,61.04
2024-03-07T07:58:05.271Z,56.13
2024-03-07T08:03:07.930Z,61.41
2024-03-07T08:08:18.017Z,56.58
2024-03-07T08:13:21.194Z,57.05
2024-03-07T08:18:24.295Z,60.20
2024-03-07T08:23:27.991Z,64.35
2024-03-07T08:28:31.253Z,57.00
2024-03-07T08:33:40.643Z,53.34
2024-03-07T08:38:44.615Z,55.21
2024-03-07T08:43:47.065Z,60.75
2024-03-07T08:48:49.956Z,54.62
2024-03-07T08:53:52.452Z,55.41
2024-03-07T08:58:54.977Z,56.13
2024-03-07T09:04:00.259Z,57.55
2024-03-07T09:09:03.588Z,58.34
2024-03-07T09:14:10.690Z,62.70
2024-03-07T09:19:14.945Z,61.33
2024-03-07T09:24:17.521Z,53.01
2024-03-07T09:29:20.541Z,54.20
2024-03-07T09:34:23.032Z,54.30
2024-03-07T09:39:25.613Z,53.52
2024-03-07T09:44:29.419Z,51.48
2024-03-07T09:49:34.746Z,53.01
2024-03-07T09:54:37.919Z,52.11
2024-03-07T09:59:45.469Z,54.22
2024-03-07T10:04:55.838Z,53.40
2024-03-07T10:10:00.407Z,54.20
2024-03-07T10:15:04.367Z,51.92
2024-03-07T10:20:10.808Z,52.41
2024-03-07T10:25:13.388Z,52.68
2024-03-07T10:30:21.582Z,53.03
2024-03-07T10:35:27.999Z,52.86
2024-03-07T10:40:31.184Z,53.15
2024-03-07T10:45:36.658Z,50.59
2024-03-07T10:51:07.948Z,52.58
2024-03-07T10:56:32.807Z,51.48
2024-03-07T11:01:44.416Z,51.37
2024-03-07T11:06:46.865Z,51.15
2024-03-07T11:11:50.133Z,52.12
2024-03-07T11:16:53.021Z,51.45
2024-03-07T11:21:57.266Z,51.37
2024-03-07T11:27:03.752Z,51.48
2024-03-07T11:32:07.761Z,51.92
2024-03-07T11:37:26.326Z,51.04
2024-03-07T11:42:34.145Z,51.79
2024-03-07T11:47:39.876Z,49.63
2024-03-07T11:52:45.168Z,49.01
2024-03-07T11:57:48.608Z,51.18
2024-03-07T12:02:51.093Z,51.46
2024-03-07T12:07:54.839Z,49.08
2024-03-07T12:12:57.647Z,49.16
2024-03-07T12:18:04.401Z,49.10
2024-03-07T12:23:08.967Z,50.63
2024-03-07T12:28:18.746Z,47.26
2024-03-07T12:33:26.158Z,48.48
2024-03-07T12:38:36.735Z,48.60
2024-03-07T12:43:39.548Z,48.98
2024-03-07T12:48:42.451Z,47.56
2024-03-07T12:53:45.326Z,47.73
2024-03-07T12:58:50.166Z,46.66
2024-03-07T13:03:52.624Z,46.93
2024-03-07T13:08:55.147Z,47.97
2024-03-07T13:13:57.908Z,43.52
2024-03-07T13:19:00.575Z,44.34
2024-03-07T13:24:03.467Z,45.56
2024-03-07T13:29:06.112Z,44.47
2024-03-07T13:34:13.981Z,41.46
2024-03-07T13:39:16.994Z,43.33
2024-03-07T13:44:20.543Z,44.81
2024-03-07T13:49:24.814Z,45.21
2024-03-07T13:54:33.459Z,46.19
2024-03-07T14:00:15.448Z,46.36
2024-03-07T14:05:41.392Z,45.65
2024-03-07T14:10:57.254Z,44.07
2024-03-07T14:16:21.710Z,45.97
2024-03-07T14:21:50.951Z,44.36
2024-03-07T14:27:25.710Z,46.26
2024-03-07T14:32:28.212Z,46.25
2024-03-07T14:37:39.078Z,44.49
2024-03-07T14:42:46.252Z,44.21
2024-03-07T14:47:53.350Z,44.28
2024-03-07T14:52:55.910Z,45.37
2024-03-07T14:57:59.858Z,43.49
2024-03-07T15:03:03.349Z,44.31
2024-03-07T15:08:06.242Z,43.68
2024-03-07T15:13:11.178Z,43.73
2024-03-07T15:18:13.891Z,43.76
2024-03-07T15:23:16.474Z,43.90
2024-03-07T15:28:18.974Z,44.37
2024-03-07T15:33:23.706Z,45.26
2024-03-07T15:38:26.988Z,45.57
2024-03-07T15:43:29.477Z,45.18
2024-03-07T15:48:32.276Z,46.01
2024-03-07T15:53:36.726Z,44.63
2024-03-07T15:58:39.446Z,43.91
2024-03-07T16:03:43.490Z,44.49
2024-03-07T16:08:46.434Z,45.35
2024-03-07T16:13:48.918Z,45.77
2024-03-07T16:18:53.162Z,45.87
2024-03-07T16:23:57.455Z,45.94
2024-03-07T16:29:00.007Z,45.32
2024-03-07T16:34:03.688Z,45.67
2024-03-07T16:39:12.868Z,46.14
2024-03-07T16:44:15.422Z,46.13
2024-03-07T16:49:18.050Z,46.23
2024-03-07T16:54:20.575Z,46.39
2024-03-07T16:59:24.103Z,46.62
2024-03-07T17:04:27.635Z,46.93
2024-03-07T17:09:30.766Z,47.07
2024-03-07T17:14:36.024Z,47.16
2024-03-07T17:19:39.185Z,47.31
2024-03-07T17:24:42.466Z,47.54
2024-03-07T17:29:47.379Z,47.69
2024-03-07T17:34:49.926Z,48.04
2024-03-07T17:39:54.796Z,48.65
2024-03-07T17:44:57.306Z,48.99
2024-03-07T17:50:03.981Z,49.59
2024-03-07T17:55:09.602Z,49.88
2024-03-07T18:00:27.425Z,50.08
2024-03-07T18:05:30.676Z,50.39
2024-03-07T18:10:36.910Z,50.75
2024-03-07T18:15:40.520Z,50.79
2024-03-07T18:20:45.752Z,51.29
2024-03-07T18:25:50.832Z,52.07
2024-03-07T18:30:54.191Z,52.96
2024-03-07T18:35:57.218Z,53.30
2024-03-07T18:40:59.748Z,53.40
2024-03-07T18:46:04.265Z,53.66
2024-03-07T18:51:06.960Z,54.23
2024-03-07T18:56:12.516Z,54.48
2024-03-07T19:01:15.315Z,54.75
2024-03-07T19:06:17.871Z,55.11
2024-03-07T19:11:20.637Z,56.32
2024-03-07T19:16:23.097Z,56.67
2024-03-07T19:21:26.062Z,56.33
2024-03-07T19:26:30.082Z,56.75
2024-03-07T19:31:35.285Z,57.46
2024-03-07T19:36:39.983Z,57.08
2024-03-07T19:41:58.635Z,57.37
2024-03-07T19:47:08.607Z,57.85
2024-03-07T19:52:11.630Z,58.06
2024-03-07T19:57:14.315Z,58.29
2024-03-07T20:02:16.798Z,59.05
2024-03-07T20:07:19.246Z,58.67
2024-03-07T20:12:21.798Z,59.10
2024-03-07T20:17:31.414Z,59.84
2024-03-07T20:22:34.511Z,59.83
2024-03-07T20:27:36.967Z,60.40
2024-03-07T20:32:39.525Z,60.76
2024-03-07T20:37:42.041Z,60.96
2024-03-07T20:42:49.085Z,66.59
2024-03-07T20:47:52.081Z,72.26
2024-03-07T20:52:54.956Z,69.46
2024-03-07T20:57:59.300Z,67.03
2024-03-07T21:03:05.093Z,64.95
2024-03-07T21:08:13.175Z,62.50
2024-03-07T21:13:17.933Z,61.30
2024-03-07T21:18:21.153Z,57.20
2024-03-07T21:23:25.426Z,55.98
2024-03-07T21:28:28.498Z,56.50
2024-03-07T21:33:32.416Z,57.02
2024-03-07T21:38:35.997Z,57.14
2024-03-07T21:43:38.531Z,58.23
2024-03-07T21:48:42.387Z,58.91
2024-03-07T21:53:54.414Z,59.68
2024-03-07T21:58:59.000Z,59.95
2024-03-07T22:04:01.462Z,60.07
2024-03-07T22:09:11.255Z,60.98
2024-03-07T22:14:17.180Z,61.25
2024-03-07T22:19:19.900Z,67.84
2024-03-07T22:24:22.390Z,71.26
2024-03-07T22:29:25.388Z,73.15
2024-03-07T22:34:30.133Z,67.51
2024-03-07T22:39:33.247Z,63.48
2024-03-07T22:44:35.889Z,60.61
2024-03-07T22:49:41.235Z,55.68
2024-03-07T22:54:44.435Z,55.24
2024-03-07T22:59:47.665Z,56.22
2024-03-07T23:04:50.241Z,57.36
2024-03-07T23:09:53.822Z,58.38
2024-03-07T23:14:56.595Z,58.66
2024-03-07T23:19:59.125Z,59.75
2024-03-07T23:25:03.139Z,59.62
2024-03-07T23:30:06.852Z,60.29
2024-03-07T23:35:09.631Z,60.96
2024-03-07T23:40:15.578Z,61.38
2024-03-07T23:45:18.265Z,67.08
2024-03-07T23:50:21.098Z,72.44
2024-03-07T23:55:24.409Z,70.95
